»·PEaware :: N380SP KSBA-KVNY

N380SP :: KSBA-KVNY

FLIGHT INFORMATION

Flight Status: Arrived
Operator: Privately registered:
United States
More flights under this callsign
Pilot: Kevin S. (26378)
Aircraft: CESSNA 172 SKYHAWK
(C172)
More flights by this aircraft type
Origin: KSBA Santa Barbara Mun
United States
Destination: KVNY Van Nuys
United States
More flights between these airports :: More routes between these airports
Route: OHIGH KSZP VAZCU
File this flight plan on PilotEdge
Remarks:
Altitude:
(Current/Filed)
5,500ft
Speed:
(Current/Filed)
100kts
Departed: 17-Nov-19 12:00 PM
Arrived: 17-Nov-19 12:50 PM
Distance/Time
Traveled:
68nm/0:49
Distance/Time
To Go:
Arrived

Flight Plot

Page will automatically refresh every two minutes.

Flight plan parsing failed; only flown route is shown


Map Options




Map Legend


Flown Route
Filed Route
Departure Airport
Arrival Airport
Navaid (VOR, NDB)
Fix

Horizontal Profiles

Position Reports

Time Latitude Longitude Heading Altitude Ground
Speed
17-Nov-19 11:26 34.424067 -119.835374 1 10ft 0kts
17-Nov-19 11:27 34.424067 -119.835374 1 10ft 0kts
17-Nov-19 11:28 34.424067 -119.835374 1 10ft 0kts
17-Nov-19 11:29 34.424067 -119.835374 1 10ft 0kts
17-Nov-19 11:30 34.424067 -119.835374 1 10ft 0kts
17-Nov-19 11:31 34.424067 -119.835374 1 10ft 0kts
17-Nov-19 11:32 34.424067 -119.835374 1 10ft 0kts
17-Nov-19 11:33 34.422822 -119.835676 332 10ft 0kts
17-Nov-19 11:34 34.422824 -119.835677 331 10ft 0kts
17-Nov-19 11:35 34.422824 -119.835677 331 10ft 0kts
17-Nov-19 11:36 34.422824 -119.835677 331 10ft 0kts
17-Nov-19 11:37 34.422824 -119.835677 331 10ft 0kts
17-Nov-19 11:38 34.422824 -119.835677 331 10ft 0kts
17-Nov-19 11:39 34.422824 -119.835677 331 10ft 0kts
17-Nov-19 11:40 34.422824 -119.835677 331 10ft 0kts
17-Nov-19 11:41 34.422824 -119.835677 331 10ft 0kts
17-Nov-19 11:42 34.422828 -119.835680 328 10ft 0kts
17-Nov-19 11:43 34.422828 -119.835680 328 10ft 0kts
17-Nov-19 11:44 34.422828 -119.835680 328 10ft 0kts
17-Nov-19 11:45 34.422828 -119.835680 328 10ft 0kts
17-Nov-19 11:46 34.422828 -119.835680 328 10ft 0kts
17-Nov-19 11:47 34.422828 -119.835680 328 10ft 0kts
17-Nov-19 11:48 34.422828 -119.835680 328 10ft 0kts
17-Nov-19 11:49 34.422828 -119.835680 328 10ft 0kts
17-Nov-19 11:50 34.422828 -119.835680 328 10ft 0kts
17-Nov-19 11:51 34.422828 -119.835680 328 10ft 0kts
17-Nov-19 11:52 34.422828 -119.835680 328 10ft 0kts
17-Nov-19 11:53 34.422727 -119.836962 288 12ft 8kts
17-Nov-19 11:54 34.427996 -119.838738 354 13ft 22kts
17-Nov-19 11:55 34.430631 -119.839666 321 14ft 4kts
17-Nov-19 11:56 34.430684 -119.839761 283 14ft 0kts
17-Nov-19 11:57 34.430684 -119.839761 283 14ft 0kts
17-Nov-19 11:58 34.430226 -119.840208 164 14ft 4kts
17-Nov-19 11:59 34.412333 -119.834528 167 646ft 82kts
17-Nov-19 12:00 34.390458 -119.828877 174 1520ft 85kts
17-Nov-19 12:01 34.372011 -119.814907 107 2380ft 89kts
17-Nov-19 12:02 34.377169 -119.785388 65 3223ft 94kts
17-Nov-19 12:03 34.385992 -119.754536 78 4040ft 97kts
17-Nov-19 12:04 34.397821 -119.728020 34 4854ft 88kts
17-Nov-19 12:05 34.413860 -119.705617 71 5499ft 104kts
17-Nov-19 12:06 34.416241 -119.666793 73 5691ft 122kts
17-Nov-19 12:07 34.418547 -119.626500 87 5586ft 122kts
17-Nov-19 12:08 34.416609 -119.584128 85 5449ft 126kts
17-Nov-19 12:09 34.416997 -119.542087 81 5427ft 124kts
17-Nov-19 12:10 34.418387 -119.499940 79 5458ft 124kts
17-Nov-19 12:11 34.419890 -119.458103 79 5549ft 124kts
17-Nov-19 12:12 34.423794 -119.418744 86 5642ft 110kts
17-Nov-19 12:13 34.430850 -119.382043 78 5681ft 111kts
17-Nov-19 12:14 34.442431 -119.347892 72 5610ft 110kts
17-Nov-19 12:15 34.435740 -119.314836 107 5554ft 106kts
17-Nov-19 12:16 34.427307 -119.279848 104 5632ft 109kts
17-Nov-19 12:17 34.418108 -119.244383 101 5732ft 109kts
17-Nov-19 12:18 34.407445 -119.209208 108 5686ft 112kts
17-Nov-19 12:20 34.392713 -119.175740 112 5545ft 115kts
17-Nov-19 12:21 34.381999 -119.141289 111 5440ft 113kts
17-Nov-19 12:22 34.363754 -119.109041 110 5559ft 117kts
17-Nov-19 12:23 34.350353 -119.073739 103 5778ft 114kts
17-Nov-19 12:24 34.342450 -119.036636 99 5621ft 112kts
17-Nov-19 12:25 34.331608 -119.000431 102 5534ft 112kts
17-Nov-19 12:26 34.325258 -118.964369 90 5555ft 112kts
17-Nov-19 12:27 34.337997 -118.934462 53 5495ft 108kts
17-Nov-19 12:28 34.346640 -118.899675 70 5527ft 106kts
17-Nov-19 12:29 34.357802 -118.866259 58 5509ft 107kts
17-Nov-19 12:30 34.372316 -118.835310 67 5568ft 106kts
17-Nov-19 12:31 34.385233 -118.803015 61 5605ft 106kts
17-Nov-19 12:32 34.397643 -118.770630 66 5633ft 107kts
17-Nov-19 12:33 34.406333 -118.735789 71 5573ft 105kts
17-Nov-19 12:34 34.415389 -118.701677 60 5472ft 106kts
17-Nov-19 12:35 34.423144 -118.669431 113 5551ft 116kts
17-Nov-19 12:36 34.388752 -118.652470 156 5515ft 137kts
17-Nov-19 12:37 34.350811 -118.644700 157 5496ft 137kts
17-Nov-19 12:38 34.316861 -118.632106 161 5284ft 120kts
17-Nov-19 12:39 34.286668 -118.623465 154 5045ft 114kts
17-Nov-19 12:40 34.254606 -118.616558 164 4408ft 121kts
17-Nov-19 12:40 34.228500 -118.609925 158 3984ft 114kts
17-Nov-19 12:41 34.197643 -118.605649 175 3624ft 111kts
17-Nov-19 12:43 34.169170 -118.588071 100 3466ft 104kts
17-Nov-19 12:43 34.161733 -118.561710 81 3163ft 93kts
17-Nov-19 12:44 34.160449 -118.535542 72 2584ft 63kts
17-Nov-19 12:45 34.157445 -118.512698 105 2562ft 96kts
17-Nov-19 12:46 34.162730 -118.492946 11 2039ft 64kts
17-Nov-19 12:47 34.177817 -118.489124 341 1539ft 72kts
17-Nov-19 12:48 34.194084 -118.488892 352 880ft 49kts
17-Nov-19 12:49 34.201212 -118.488879 75 806ft 9kts

Navigation Log

Ident Type
Flight plan parsing failed, navigation log unavailable